createdAt,value
2019-05-29T00:01:21.692Z,101254.31
2019-05-29T00:03:49.962Z,101252.47
2019-05-29T00:06:18.641Z,101254.93
2019-05-29T00:08:47.127Z,101258.74
2019-05-29T00:11:15.615Z,101262.98
2019-05-29T00:13:44.086Z,101265.06
2019-05-29T00:16:14.524Z,101270.62
2019-05-29T00:18:43.037Z,101276.16
2019-05-29T00:21:11.971Z,101275.30
2019-05-29T00:23:41.599Z,101280.42
2019-05-29T00:26:10.424Z,101288.11
2019-05-29T00:28:38.914Z,101295.83
2019-05-29T00:31:07.750Z,101296.17
2019-05-29T00:33:36.286Z,101297.84
2019-05-29T00:36:06.159Z,101299.05
2019-05-29T00:38:34.843Z,101303.72
2019-05-29T00:41:03.341Z,101301.92
2019-05-29T00:43:31.840Z,101308.77
2019-05-29T00:46:00.340Z,101305.67
2019-05-29T00:48:28.815Z,101315.52
2019-05-29T00:50:57.290Z,101314.95
2019-05-29T00:53:25.800Z,101313.58
2019-05-29T00:55:54.276Z,101306.58
2019-05-29T00:58:22.747Z,101306.07
2019-05-29T01:00:51.289Z,101312.42
2019-05-29T01:03:19.862Z,101311.92
2019-05-29T01:05:48.319Z,101309.75
2019-05-29T01:08:17.007Z,101318.00
2019-05-29T01:10:45.481Z,101317.58
2019-05-29T01:13:15.076Z,101320.61
2019-05-29T01:15:43.735Z,101325.79
2019-05-29T01:18:13.698Z,101326.21
2019-05-29T01:20:42.427Z,101329.73
2019-05-29T01:23:12.083Z,101339.21
2019-05-29T01:25:40.672Z,101340.87
2019-05-29T01:28:09.142Z,101345.11
2019-05-29T01:30:37.643Z,101352.43
2019-05-29T01:33:06.194Z,101352.73
2019-05-29T01:35:34.670Z,101364.80
2019-05-29T01:38:04.449Z,101363.08
2019-05-29T01:40:32.915Z,101359.68
2019-05-29T01:43:01.378Z,101365.76
2019-05-29T01:45:29.892Z,101373.64
2019-05-29T01:47:58.365Z,101375.38
2019-05-29T01:50:27.943Z,101382.78
2019-05-29T01:52:56.526Z,101379.84
2019-05-29T01:55:24.977Z,101380.28
2019-05-29T01:57:53.448Z,101382.94
2019-05-29T02:00:24.003Z,101385.13
2019-05-29T02:02:52.632Z,101388.20
2019-05-29T02:05:22.046Z,101391.23
2019-05-29T02:07:50.774Z,101394.75
2019-05-29T02:10:20.295Z,101398.22
2019-05-29T02:12:48.856Z,101400.38
2019-05-29T02:15:29.359Z,101400.81
2019-05-29T02:17:47.925Z,101410.80
2019-05-29T02:20:16.927Z,101413.33
2019-05-29T02:22:45.526Z,101412.94
2019-05-29T02:25:17.321Z,101424.52
2019-05-29T02:27:44.317Z,101424.95
2019-05-29T02:30:12.896Z,101431.93
2019-05-29T02:32:41.377Z,101429.28
2019-05-29T02:35:09.932Z,101437.02
2019-05-29T02:37:38.664Z,101439.61
2019-05-29T02:40:08.409Z,101446.89
2019-05-29T02:42:37.033Z,101454.23
2019-05-29T02:45:09.000Z,101457.22
2019-05-29T02:47:37.455Z,101463.69
2019-05-29T02:50:07.943Z,101462.33
2019-05-29T02:52:36.446Z,101465.79
2019-05-29T02:55:07.065Z,101469.25
2019-05-29T02:57:35.556Z,101472.27
2019-05-29T03:00:06.193Z,101478.73
2019-05-29T03:02:34.668Z,101477.86
2019-05-29T03:05:03.687Z,101480.87
2019-05-29T03:07:32.761Z,101487.34
2019-05-29T03:10:01.493Z,101492.55
2019-05-29T03:12:31.443Z,101489.58
2019-05-29T03:15:00.249Z,101497.79
2019-05-29T03:17:29.811Z,101493.12
2019-05-29T03:19:58.485Z,101501.89
2019-05-29T03:22:28.689Z,101501.92
2019-05-29T03:24:57.281Z,101505.38
2019-05-29T03:27:25.764Z,101504.99
2019-05-29T03:29:54.254Z,101512.79
2019-05-29T03:32:22.735Z,101522.72
2019-05-29T03:34:51.189Z,101522.36
2019-05-29T03:37:19.699Z,101530.20
2019-05-29T03:39:48.178Z,101531.16
2019-05-29T03:42:16.873Z,101537.73
2019-05-29T03:44:45.411Z,101541.34
2019-05-29T03:47:13.886Z,101548.87
2019-05-29T03:49:42.362Z,101552.48
2019-05-29T03:52:10.875Z,101554.75
2019-05-29T03:54:39.367Z,101556.55
2019-05-29T03:57:07.842Z,101558.81
2019-05-29T03:59:37.460Z,101561.11
2019-05-29T04:02:06.085Z,101562.55
2019-05-29T04:04:36.220Z,101573.09
2019-05-29T04:07:04.787Z,101567.78
2019-05-29T04:09:33.482Z,101577.59
2019-05-29T04:12:01.911Z,101578.33
2019-05-29T04:14:31.625Z,101576.48
2019-05-29T04:17:00.688Z,101587.22
2019-05-29T04:19:30.494Z,101588.73
2019-05-29T04:22:03.039Z,101589.47
2019-05-29T04:24:34.024Z,101594.95
2019-05-29T04:27:04.543Z,101598.20
2019-05-29T04:29:34.218Z,101598.47
2019-05-29T04:32:02.773Z,101600.55
2019-05-29T04:34:31.688Z,101607.48
2019-05-29T04:37:01.561Z,101599.80
2019-05-29T04:39:30.591Z,101620.37
2019-05-29T04:41:59.173Z,101622.99
2019-05-29T04:44:28.799Z,101629.97
2019-05-29T04:47:10.389Z,101630.91
2019-05-29T04:49:29.257Z,101640.63
2019-05-29T04:51:57.979Z,101647.17
2019-05-29T04:54:26.471Z,101652.89
2019-05-29T04:56:54.919Z,101656.53
2019-05-29T04:59:23.458Z,101661.43
2019-05-29T05:01:51.921Z,101672.77
2019-05-29T05:04:20.393Z,101677.16
2019-05-29T05:06:48.909Z,101681.56
2019-05-29T05:09:17.375Z,101684.21
2019-05-29T05:11:45.924Z,101688.11
2019-05-29T05:14:14.426Z,101687.23
2019-05-29T05:16:42.937Z,101693.25
2019-05-29T05:19:11.461Z,101696.66
2019-05-29T05:21:40.351Z,101701.35
2019-05-29T05:24:08.940Z,101708.27
2019-05-29T05:26:38.399Z,101705.73
2019-05-29T05:29:07.119Z,101709.27
2019-05-29T05:31:36.502Z,101703.34
2019-05-29T05:34:05.444Z,101711.34
2019-05-29T05:36:34.672Z,101710.66
2019-05-29T05:39:03.228Z,101713.96
2019-05-29T05:41:32.711Z,101713.60
2019-05-29T05:44:01.417Z,101719.80
2019-05-29T05:46:30.961Z,101719.92
2019-05-29T05:48:59.492Z,101724.30
2019-05-29T05:51:28.017Z,101732.66
2019-05-29T05:53:56.508Z,101731.92
2019-05-29T05:56:25.002Z,101742.95
2019-05-29T05:58:53.534Z,101746.27
2019-05-29T06:01:22.021Z,101741.63
2019-05-29T06:03:50.508Z,101748.80
2019-05-29T06:06:19.033Z,101752.88
2019-05-29T06:08:47.516Z,101750.00
2019-05-29T06:11:15.995Z,101759.28
2019-05-29T06:13:44.494Z,101750.27
2019-05-29T06:16:12.978Z,101761.42
2019-05-29T06:18:42.789Z,101767.61
2019-05-29T06:21:11.615Z,101768.18
2019-05-29T06:23:41.130Z,101766.08
2019-05-29T06:26:09.668Z,101767.04
2019-05-29T06:28:39.114Z,101774.09
2019-05-29T06:31:07.662Z,101771.27
2019-05-29T06:33:37.327Z,101776.70
2019-05-29T06:36:05.961Z,101783.77
2019-05-29T06:38:35.597Z,101789.07
2019-05-29T06:41:04.307Z,101783.92
2019-05-29T06:43:33.792Z,101781.84
2019-05-29T06:46:02.378Z,101788.06
2019-05-29T06:48:42.885Z,101809.50
2019-05-29T06:51:01.504Z,101798.30
2019-05-29T06:53:30.017Z,101805.25
2019-05-29T06:55:59.716Z,101804.83
2019-05-29T06:58:28.738Z,101810.95
2019-05-29T07:00:57.216Z,101811.03
2019-05-29T07:03:25.706Z,101808.82
2019-05-29T07:05:54.278Z,101819.94
2019-05-29T07:08:37.387Z,101825.58
2019-05-29T07:10:52.950Z,101831.33
2019-05-29T07:13:21.493Z,101825.43
2019-05-29T07:15:49.943Z,101834.80
2019-05-29T07:18:18.430Z,101845.90
2019-05-29T07:20:47.072Z,101841.39
2019-05-29T07:23:15.597Z,101849.77
2019-05-29T07:25:45.490Z,101845.86
2019-05-29T07:28:14.346Z,101861.00
2019-05-29T07:30:48.263Z,101864.39
2019-05-29T07:33:13.094Z,101864.59
2019-05-29T07:35:41.609Z,101869.09
2019-05-29T07:38:10.091Z,101884.11
2019-05-29T07:40:40.488Z,101880.39
2019-05-29T07:43:08.817Z,101884.25
2019-05-29T07:45:37.781Z,101884.45
2019-05-29T07:48:06.744Z,101887.70
2019-05-29T07:50:36.356Z,101895.61
2019-05-29T07:53:05.094Z,101894.98
2019-05-29T07:55:33.584Z,101899.14
2019-05-29T07:58:02.090Z,101901.06
2019-05-29T08:00:35.730Z,101901.72
2019-05-29T08:03:00.855Z,101905.42
2019-05-29T08:05:29.377Z,101896.09
2019-05-29T08:07:57.862Z,101889.77
2019-05-29T08:10:26.697Z,101897.77
2019-05-29T08:12:56.018Z,101899.66
2019-05-29T08:15:24.790Z,101908.52
2019-05-29T08:17:53.262Z,101911.75
2019-05-29T08:20:22.108Z,101912.81
2019-05-29T08:22:51.065Z,101915.52
2019-05-29T08:25:19.823Z,101922.60
2019-05-29T08:27:48.861Z,101923.07
2019-05-29T08:30:19.070Z,101929.07
2019-05-29T08:32:47.539Z,101934.99
2019-05-29T08:35:16.196Z,101939.28
2019-05-29T08:37:44.964Z,101940.62
2019-05-29T08:40:14.122Z,101938.19
2019-05-29T08:42:43.172Z,101941.84
2019-05-29T08:45:11.860Z,101946.31
2019-05-29T08:47:41.395Z,101944.46
2019-05-29T08:50:18.542Z,101945.27
2019-05-29T08:52:43.835Z,101952.23
2019-05-29T08:55:13.901Z,101948.82
2019-05-29T08:57:42.691Z,101957.20
2019-05-29T09:00:12.006Z,101950.73
2019-05-29T09:02:40.483Z,101960.46
2019-05-29T09:05:09.680Z,101953.95
2019-05-29T09:07:38.139Z,101956.13
2019-05-29T09:10:07.462Z,101964.02
2019-05-29T09:12:35.999Z,101962.77
2019-05-29T09:15:09.667Z,101962.37
2019-05-29T09:17:38.547Z,101967.26
2019-05-29T09:20:16.299Z,101959.88
2019-05-29T09:22:37.908Z,101972.18
2019-05-29T09:25:07.128Z,101967.81
2019-05-29T09:27:35.632Z,101959.12
2019-05-29T09:30:05.152Z,101967.91
2019-05-29T09:32:49.265Z,101974.02
2019-05-29T09:35:04.380Z,101979.19
2019-05-29T09:37:32.844Z,101977.41
2019-05-29T09:40:01.386Z,101980.03
2019-05-29T09:42:29.904Z,101986.98
2019-05-29T09:44:58.374Z,101993.89
2019-05-29T09:47:26.880Z,101986.91
2019-05-29T09:49:55.397Z,101990.88
2019-05-29T09:52:25.376Z,101993.98
2019-05-29T09:54:54.678Z,101992.68
2019-05-29T09:57:23.183Z,101997.51
2019-05-29T09:59:53.820Z,101994.05
2019-05-29T10:02:21.963Z,101995.36
2019-05-29T10:04:51.609Z,101989.69
2019-05-29T10:07:21.355Z,101998.45
2019-05-29T10:09:49.833Z,101999.37
2019-05-29T10:12:18.332Z,102000.69
2019-05-29T10:14:46.853Z,102002.46
2019-05-29T10:17:15.332Z,102015.20
2019-05-29T10:19:43.871Z,102017.91
2019-05-29T10:22:12.336Z,101998.25
2019-05-29T10:24:40.813Z,102018.52
2019-05-29T10:27:09.331Z,102020.73
2019-05-29T10:29:37.818Z,102018.11
2019-05-29T10:32:06.288Z,102012.00
2019-05-29T10:34:34.812Z,102022.03
2019-05-29T10:37:03.428Z,102031.67
2019-05-29T10:39:31.908Z,102022.56
2019-05-29T10:42:00.417Z,102023.45
2019-05-29T10:44:28.884Z,102012.59
2019-05-29T10:46:57.363Z,102028.75
2019-05-29T10:49:25.949Z,102026.16
2019-05-29T10:52:11.785Z,102024.02
2019-05-29T10:54:24.692Z,102028.44
2019-05-29T10:56:54.959Z,102029.83
2019-05-29T10:59:23.661Z,102023.72
2019-05-29T11:01:53.718Z,102017.19
2019-05-29T11:04:22.562Z,102031.14
2019-05-29T11:06:52.464Z,102029.88
2019-05-29T11:09:21.249Z,102042.14
2019-05-29T11:11:50.698Z,102037.77
2019-05-29T11:14:19.290Z,102036.45
2019-05-29T11:16:49.046Z,102041.69
2019-05-29T11:19:17.751Z,102027.27
2019-05-29T11:21:47.980Z,102039.09
2019-05-29T11:24:16.641Z,102036.09
2019-05-29T11:26:45.147Z,102040.94
2019-05-29T11:29:13.699Z,102044.48
2019-05-29T11:31:42.199Z,102048.89
2019-05-29T11:34:10.725Z,102051.55
2019-05-29T11:36:39.205Z,102051.63
2019-05-29T11:39:09.215Z,102050.37
2019-05-29T11:41:37.828Z,102051.27
2019-05-29T11:44:06.295Z,102052.58
2019-05-29T11:46:35.026Z,102051.23
2019-05-29T11:49:03.775Z,102053.84
2019-05-29T11:51:32.333Z,102051.67
2019-05-29T11:54:02.345Z,102055.66
2019-05-29T11:56:31.096Z,102051.28
2019-05-29T11:58:59.783Z,102056.92
2019-05-29T12:01:28.275Z,102052.97
2019-05-29T12:04:19.595Z,102052.94
2019-05-29T12:06:27.083Z,102051.11
2019-05-29T12:08:55.818Z,102050.58
2019-05-29T12:11:24.617Z,102054.07
2019-05-29T12:13:54.160Z,102047.50
2019-05-29T12:16:22.874Z,102050.55
2019-05-29T12:18:51.551Z,102053.22
2019-05-29T12:21:20.021Z,102056.28
2019-05-29T12:23:48.576Z,102058.95
2019-05-29T12:26:22.635Z,102061.20
2019-05-29T12:28:47.304Z,102058.58
2019-05-29T12:31:15.791Z,102062.06
2019-05-29T12:33:44.291Z,102059.55
2019-05-29T12:36:12.776Z,102065.77
2019-05-29T12:38:41.250Z,102057.08
2019-05-29T12:41:09.764Z,102050.59
2019-05-29T12:43:38.236Z,102052.84
2019-05-29T12:46:06.708Z,102058.20
2019-05-29T12:48:35.237Z,102063.05
2019-05-29T12:51:04.166Z,102060.47
2019-05-29T12:53:32.870Z,102065.71
2019-05-29T12:56:02.556Z,102077.03
2019-05-29T12:58:31.167Z,102069.02
2019-05-29T13:01:00.687Z,102069.38
2019-05-29T13:03:29.431Z,102064.48
2019-05-29T13:05:58.206Z,102065.34
2019-05-29T13:08:26.894Z,102064.93
2019-05-29T13:10:56.232Z,102059.76
2019-05-29T13:13:24.791Z,102073.79
2019-05-29T13:15:54.630Z,102071.98
2019-05-29T13:18:23.360Z,102065.83
2019-05-29T13:20:51.839Z,102071.55
2019-05-29T13:23:20.380Z,102065.86
2019-05-29T13:25:48.844Z,102068.42
2019-05-29T13:28:17.316Z,102073.24
2019-05-29T13:30:45.822Z,102077.56
2019-05-29T13:33:14.307Z,102070.14
2019-05-29T13:35:42.798Z,102068.88
2019-05-29T13:38:11.331Z,102071.13
2019-05-29T13:40:39.821Z,102070.70
2019-05-29T13:43:15.052Z,102072.46
2019-05-29T13:45:38.641Z,102074.26
2019-05-29T13:48:07.537Z,102074.34
2019-05-29T13:50:36.162Z,102073.52
2019-05-29T13:53:05.515Z,102071.77
2019-05-29T13:55:34.216Z,102078.77
2019-05-29T13:58:03.782Z,102079.19
2019-05-29T14:00:34.779Z,102077.83
2019-05-29T14:03:04.849Z,102073.44
2019-05-29T14:05:33.540Z,102071.23
2019-05-29T14:08:02.761Z,102080.80
2019-05-29T14:10:31.678Z,102077.77
2019-05-29T14:13:00.928Z,102076.46
2019-05-29T14:15:29.925Z,102084.88
2019-05-29T14:18:00.595Z,102077.94
2019-05-29T14:20:29.530Z,102074.93
2019-05-29T14:22:58.208Z,102078.02
2019-05-29T14:25:27.102Z,102083.31
2019-05-29T14:27:55.656Z,102081.61
2019-05-29T14:30:24.544Z,102085.60
2019-05-29T14:32:53.039Z,102085.61
2019-05-29T14:35:21.509Z,102081.61
2019-05-29T14:37:50.033Z,102082.02
2019-05-29T14:40:18.893Z,102088.90
2019-05-29T14:42:47.340Z,102087.11
2019-05-29T14:45:16.145Z,102093.57
2019-05-29T14:47:44.625Z,102084.77
2019-05-29T14:50:14.488Z,102094.37
2019-05-29T14:52:43.009Z,102096.94
2019-05-29T14:55:16.200Z,102093.31
2019-05-29T14:57:42.042Z,102099.46
2019-05-29T15:00:24.161Z,102098.64
2019-05-29T15:02:42.400Z,102106.14
2019-05-29T15:05:12.196Z,102104.42
2019-05-29T15:07:41.201Z,102109.70
2019-05-29T15:10:22.642Z,102111.83
2019-05-29T15:12:40.629Z,102116.16
2019-05-29T15:15:11.400Z,102119.64
2019-05-29T15:17:39.907Z,102117.03
2019-05-29T15:20:10.106Z,102113.14
2019-05-29T15:22:39.783Z,102114.94
2019-05-29T15:25:18.343Z,102123.33
2019-05-29T15:27:39.510Z,102121.19
2019-05-29T15:30:11.102Z,102123.87
2019-05-29T15:32:40.059Z,102120.88
2019-05-29T15:35:13.805Z,102124.03
2019-05-29T15:37:40.064Z,102129.36
2019-05-29T15:40:11.032Z,102124.59
2019-05-29T15:42:39.596Z,102129.45
2019-05-29T15:45:09.911Z,102125.88
2019-05-29T15:47:38.514Z,102130.25
2019-05-29T15:50:09.299Z,102138.63
2019-05-29T15:52:37.973Z,102139.10
2019-05-29T15:55:27.042Z,102142.59
2019-05-29T15:57:40.303Z,102144.30
2019-05-29T16:00:13.650Z,102147.25
2019-05-29T16:02:42.392Z,102137.66
2019-05-29T16:05:12.936Z,102141.61
2019-05-29T16:07:41.780Z,102135.94
2019-05-29T16:10:16.448Z,102139.00
2019-05-29T16:12:43.739Z,102143.39
2019-05-29T16:15:15.143Z,102140.34
2019-05-29T16:17:43.945Z,102136.85
2019-05-29T16:20:12.505Z,102140.34
2019-05-29T16:22:41.033Z,102143.41
2019-05-29T16:25:10.816Z,102145.17
2019-05-29T16:27:39.537Z,102142.16
2019-05-29T16:30:08.796Z,102151.43
2019-05-29T16:32:37.276Z,102153.72
2019-05-29T16:35:08.501Z,102153.31
2019-05-29T16:37:37.027Z,102151.14
2019-05-29T16:40:08.678Z,102153.37
2019-05-29T16:42:37.144Z,102156.01
2019-05-29T16:45:08.591Z,102156.88
2019-05-29T16:47:37.060Z,102147.67
2019-05-29T16:50:08.785Z,102151.66
2019-05-29T16:52:37.857Z,102152.52
2019-05-29T16:55:07.589Z,102148.56
2019-05-29T16:57:36.050Z,102150.73
2019-05-29T17:00:08.853Z,102154.66
2019-05-29T17:02:37.700Z,102152.86
2019-05-29T17:05:06.744Z,102154.17
2019-05-29T17:07:35.563Z,102153.73
2019-05-29T17:10:06.282Z,102157.23
2019-05-29T17:12:34.750Z,102155.03
2019-05-29T17:15:05.663Z,102156.33
2019-05-29T17:17:34.115Z,102152.78
2019-05-29T17:20:02.742Z,102155.77
2019-05-29T17:22:31.290Z,102150.41
2019-05-29T17:24:59.778Z,102151.64
2019-05-29T17:27:28.246Z,102152.45
2019-05-29T17:29:56.761Z,102159.92
2019-05-29T17:32:25.442Z,102159.02
2019-05-29T17:34:53.946Z,102165.25
2019-05-29T17:37:23.148Z,102164.92
2019-05-29T17:39:51.613Z,102165.86
2019-05-29T17:42:20.311Z,102163.30
2019-05-29T17:44:48.873Z,102162.53
2019-05-29T17:47:17.759Z,102159.52
2019-05-29T17:49:46.304Z,102173.59
2019-05-29T17:52:15.738Z,102175.30
2019-05-29T17:54:44.369Z,102178.24
2019-05-29T17:57:12.842Z,102177.17
2019-05-29T17:59:41.424Z,102188.77
2019-05-29T18:02:09.905Z,102189.80
2019-05-29T18:04:38.360Z,102186.47
2019-05-29T18:07:06.882Z,102185.30
2019-05-29T18:09:35.364Z,102185.45
2019-05-29T18:12:03.894Z,102193.03
2019-05-29T18:14:32.425Z,102195.87
2019-05-29T18:17:01.066Z,102189.52
2019-05-29T18:19:29.544Z,102189.70
2019-05-29T18:21:58.519Z,102191.29
2019-05-29T18:24:31.980Z,102193.31
2019-05-29T18:27:00.451Z,102194.03
2019-05-29T18:29:29.679Z,102197.36
2019-05-29T18:32:00.063Z,102199.02
2019-05-29T18:34:29.573Z,102201.15
2019-05-29T18:36:58.387Z,102205.44
2019-05-29T18:39:27.006Z,102208.88
2019-05-29T18:41:55.837Z,102208.80
2019-05-29T18:44:24.856Z,102210.48
2019-05-29T18:46:53.769Z,102209.53
2019-05-29T18:49:22.626Z,102213.37
2019-05-29T18:51:51.583Z,102208.05
2019-05-29T18:54:20.057Z,102211.88
2019-05-29T18:57:13.091Z,102211.35
2019-05-29T18:59:18.819Z,102217.83
2019-05-29T19:01:47.295Z,102209.42
2019-05-29T19:04:15.774Z,102210.14
2019-05-29T19:06:44.298Z,102215.23
2019-05-29T19:09:12.842Z,102219.00
2019-05-29T19:11:41.326Z,102221.02
2019-05-29T19:14:09.847Z,102221.30
2019-05-29T19:16:39.658Z,102221.14
2019-05-29T19:19:08.345Z,102223.65
2019-05-29T19:21:36.852Z,102221.36
2019-05-29T19:24:05.397Z,102222.99
2019-05-29T19:26:36.758Z,102230.71
2019-05-29T19:29:04.205Z,102231.83
2019-05-29T19:31:33.359Z,102232.96
2019-05-29T19:34:02.043Z,102238.01
2019-05-29T19:36:31.772Z,102246.97
2019-05-29T19:39:00.387Z,102250.27
2019-05-29T19:41:29.982Z,102257.47
2019-05-29T19:43:58.644Z,102258.92
2019-05-29T19:46:27.124Z,102262.62
2019-05-29T19:48:55.596Z,102264.98
2019-05-29T19:51:25.209Z,102267.45
2019-05-29T19:53:53.865Z,102269.93
2019-05-29T19:56:22.335Z,102273.21
2019-05-29T19:58:50.873Z,102270.83
2019-05-29T20:01:30.614Z,102278.89
2019-05-29T20:03:49.612Z,102276.50
2019-05-29T20:06:18.146Z,102271.02
2019-05-29T20:08:46.672Z,102274.69
2019-05-29T20:11:16.413Z,102280.11
2019-05-29T20:13:44.970Z,102280.25
2019-05-29T20:16:13.437Z,102278.25
2019-05-29T20:18:41.921Z,102285.81
2019-05-29T20:21:10.460Z,102284.64
2019-05-29T20:23:38.974Z,102296.12
2019-05-29T20:26:07.480Z,102300.70
2019-05-29T20:28:36.366Z,102307.91
2019-05-29T20:31:05.115Z,102308.55
2019-05-29T20:33:34.536Z,102312.69
2019-05-29T20:36:03.177Z,102312.05
2019-05-29T20:38:31.650Z,102301.00
2019-05-29T20:41:00.113Z,102303.72
2019-05-29T20:43:28.642Z,102304.34
2019-05-29T20:45:57.118Z,102305.81
2019-05-29T20:48:25.595Z,102308.09
2019-05-29T20:50:54.130Z,102309.06
2019-05-29T20:53:22.606Z,102309.13
2019-05-29T20:55:51.084Z,102309.70
2019-05-29T20:58:24.471Z,102315.05
2019-05-29T21:00:49.808Z,102323.45
2019-05-29T21:03:18.463Z,102323.18
2019-05-29T21:05:46.965Z,102326.83
2019-05-29T21:08:15.440Z,102324.45
2019-05-29T21:10:43.931Z,102325.22
2019-05-29T21:13:12.926Z,102326.80
2019-05-29T21:15:43.761Z,102327.11
2019-05-29T21:18:12.294Z,102322.62
2019-05-29T21:20:40.822Z,102324.23
2019-05-29T21:23:09.288Z,102326.16
2019-05-29T21:25:40.732Z,102323.94
2019-05-29T21:28:09.455Z,102329.41
2019-05-29T21:30:37.965Z,102329.66
2019-05-29T21:33:06.444Z,102339.86
2019-05-29T21:35:36.074Z,102329.70
2019-05-29T21:38:04.708Z,102333.38
2019-05-29T21:40:33.181Z,102331.02
2019-05-29T21:43:01.685Z,102333.88
2019-05-29T21:45:30.203Z,102336.25
2019-05-29T21:47:58.712Z,102340.30
2019-05-29T21:50:27.221Z,102334.00
2019-05-29T21:52:55.712Z,102332.92
2019-05-29T21:55:24.185Z,102335.33
2019-05-29T21:57:52.716Z,102337.66
2019-05-29T22:00:38.000Z,102337.00
2019-05-29T22:03:06.541Z,102332.87
2019-05-29T22:05:35.015Z,102342.94
2019-05-29T22:08:03.497Z,102339.14
2019-05-29T22:10:32.145Z,102342.42
2019-05-29T22:13:01.001Z,102337.98
2019-05-29T22:15:29.702Z,102340.04
2019-05-29T22:17:59.178Z,102346.73
2019-05-29T22:20:27.780Z,102340.39
2019-05-29T22:22:57.191Z,102338.39
2019-05-29T22:25:25.906Z,102343.78
2019-05-29T22:27:55.614Z,102337.02
2019-05-29T22:30:24.217Z,102340.23
2019-05-29T22:32:53.251Z,102338.19
2019-05-29T22:35:22.073Z,102335.67
2019-05-29T22:37:51.540Z,102343.16
2019-05-29T22:40:20.369Z,102341.18
2019-05-29T22:42:48.843Z,102340.97
2019-05-29T22:45:17.742Z,102334.64
2019-05-29T22:47:46.265Z,102338.18
2019-05-29T22:50:14.896Z,102337.33
2019-05-29T22:52:43.463Z,102339.98
2019-05-29T22:55:12.134Z,102336.54
2019-05-29T22:57:40.625Z,102345.74
2019-05-29T23:00:10.009Z,102346.67
2019-05-29T23:02:38.530Z,102334.72
2019-05-29T23:05:07.599Z,102338.87
2019-05-29T23:07:36.078Z,102336.53
2019-05-29T23:10:07.940Z,102338.14
2019-05-29T23:12:36.418Z,102335.00
2019-05-29T23:15:07.874Z,102337.45
2019-05-29T23:17:37.401Z,102338.20
2019-05-29T23:20:07.891Z,102336.84
2019-05-29T23:22:36.437Z,102332.00
2019-05-29T23:25:05.941Z,102337.97
2019-05-29T23:27:35.260Z,102339.62
2019-05-29T23:30:05.460Z,102336.06
2019-05-29T23:32:33.990Z,102333.72
2019-05-29T23:35:03.525Z,102336.25
2019-05-29T23:37:33.098Z,102341.33
2019-05-29T23:40:01.682Z,102334.63
2019-05-29T23:42:30.152Z,102331.78
2019-05-29T23:44:59.443Z,102334.22
2019-05-29T23:47:28.135Z,102331.03
2019-05-29T23:49:57.555Z,102329.97
2019-05-29T23:52:26.159Z,102326.03
2019-05-29T23:54:55.703Z,102326.83
2019-05-29T23:57:24.239Z,102321.09
